sensor_id;sensor_type;location;lat;lon;timestamp;pressure;altitude;pressure_sealevel;temperature;humidity
24302;BME280;12421;49.732;20.078;2023-04-06T00:08:29;97099.54;;;-0.28;63.38
24302;BME280;12421;49.732;20.078;2023-04-06T00:18:34;97094.63;;;-0.45;63.92
24302;BME280;12421;49.732;20.078;2023-04-06T00:28:43;97092.95;;;-0.69;64.19
24302;BME280;12421;49.732;20.078;2023-04-06T00:38:53;97087.29;;;-0.92;65.87
24302;BME280;12421;49.732;20.078;2023-04-06T00:49:03;97077.09;;;-1.12;66.86
24302;BME280;12421;49.732;20.078;2023-04-06T00:59:22;97068.48;;;-1.31;67.39
24302;BME280;12421;49.732;20.078;2023-04-06T01:55:35;97052.79;;;-2.34;71.00
24302;BME280;12421;49.732;20.078;2023-04-06T02:06:24;97047.89;;;-2.57;71.27
24302;BME280;12421;49.732;20.078;2023-04-06T02:17:56;97048.48;;;-2.84;71.87
24302;BME280;12421;49.732;20.078;2023-04-06T02:29:06;97039.21;;;-3.04;72.50
24302;BME280;12421;49.732;20.078;2023-04-06T02:40:53;97032.10;;;-3.18;73.20
24302;BME280;12421;49.732;20.078;2023-04-06T03:38:12;97059.05;;;-3.86;75.18
24302;BME280;12421;49.732;20.078;2023-04-06T05:09:42;97048.02;;;-2.24;74.43
24302;BME280;12421;49.732;20.078;2023-04-06T06:18:08;97034.25;;;0.02;69.14
24302;BME280;12421;49.732;20.078;2023-04-06T10:41:08;96954.67;;;2.97;62.62
24302;BME280;12421;49.732;20.078;2023-04-06T11:03:17;96938.62;;;2.55;65.37
24302;BME280;12421;49.732;20.078;2023-04-06T11:59:39;96916.21;;;2.98;66.77
24302;BME280;12421;49.732;20.078;2023-04-06T12:09:42;96906.16;;;3.18;66.94
24302;BME280;12421;49.732;20.078;2023-04-06T12:19:47;96903.33;;;3.57;66.57
24302;BME280;12421;49.732;20.078;2023-04-06T12:29:50;96904.92;;;3.83;65.66
24302;BME280;12421;49.732;20.078;2023-04-06T12:39:53;96890.07;;;3.75;65.33
24302;BME280;12421;49.732;20.078;2023-04-06T12:49:56;96882.37;;;3.60;65.78
24302;BME280;12421;49.732;20.078;2023-04-06T12:59:59;96882.61;;;3.64;66.77
24302;BME280;12421;49.732;20.078;2023-04-06T13:10:03;96876.83;;;3.61;66.93
24302;BME280;12421;49.732;20.078;2023-04-06T13:20:07;96867.02;;;3.44;67.14
24302;BME280;12421;49.732;20.078;2023-04-06T13:30:10;96860.05;;;3.53;67.20
24302;BME280;12421;49.732;20.078;2023-04-06T13:40:14;96859.09;;;3.36;67.14
24302;BME280;12421;49.732;20.078;2023-04-06T13:50:17;96866.56;;;3.15;67.78
24302;BME280;12421;49.732;20.078;2023-04-06T14:00:20;96872.09;;;3.04;68.43
24302;BME280;12421;49.732;20.078;2023-04-06T14:10:24;96872.94;;;2.93;68.64
24302;BME280;12421;49.732;20.078;2023-04-06T14:20:31;96876.09;;;2.84;68.77
24302;BME280;12421;49.732;20.078;2023-04-06T14:30:35;96872.15;;;2.78;68.84
24302;BME280;12421;49.732;20.078;2023-04-06T14:40:38;96876.00;;;2.61;69.29
24302;BME280;12421;49.732;20.078;2023-04-06T14:50:41;96879.33;;;2.45;70.18
24302;BME280;12421;49.732;20.078;2023-04-06T15:00:49;96874.28;;;2.26;70.49
24302;BME280;12421;49.732;20.078;2023-04-06T15:10:52;96872.84;;;2.07;70.87
24302;BME280;12421;49.732;20.078;2023-04-06T15:20:57;96864.98;;;1.95;71.10
24302;BME280;12421;49.732;20.078;2023-04-06T15:31:00;96864.55;;;1.84;71.26
24302;BME280;12421;49.732;20.078;2023-04-06T15:41:09;96873.77;;;1.78;71.80
24302;BME280;12421;49.732;20.078;2023-04-06T15:51:13;96874.91;;;1.74;71.67
24302;BME280;12421;49.732;20.078;2023-04-06T16:01:19;96869.60;;;1.61;72.05
24302;BME280;12421;49.732;20.078;2023-04-06T16:11:23;96878.66;;;1.42;72.63
24302;BME280;12421;49.732;20.078;2023-04-06T16:21:26;96880.23;;;1.36;73.00
24302;BME280;12421;49.732;20.078;2023-04-06T16:31:30;96876.34;;;1.32;73.38
24302;BME280;12421;49.732;20.078;2023-04-06T16:41:35;96871.02;;;1.18;73.98
24302;BME280;12421;49.732;20.078;2023-04-06T16:51:41;96871.35;;;1.04;74.32
24302;BME280;12421;49.732;20.078;2023-04-06T17:01:44;96866.73;;;1.00;74.60
24302;BME280;12421;49.732;20.078;2023-04-06T17:11:48;96863.27;;;0.99;74.82
24302;BME280;12421;49.732;20.078;2023-04-06T17:21:52;96866.59;;;0.94;75.13
24302;BME280;12421;49.732;20.078;2023-04-06T17:31:55;96861.56;;;0.87;75.03
24302;BME280;12421;49.732;20.078;2023-04-06T17:41:58;96865.66;;;0.78;75.52
24302;BME280;12421;49.732;20.078;2023-04-06T17:52:01;96864.46;;;0.78;75.65
24302;BME280;12421;49.732;20.078;2023-04-06T18:02:05;96867.54;;;0.77;76.39
24302;BME280;12421;49.732;20.078;2023-04-06T18:12:09;96869.98;;;0.84;76.70
24302;BME280;12421;49.732;20.078;2023-04-06T18:22:12;96863.23;;;0.77;77.09
24302;BME280;12421;49.732;20.078;2023-04-06T18:32:15;96866.95;;;0.67;76.96
24302;BME280;12421;49.732;20.078;2023-04-06T18:42:18;96867.27;;;0.74;77.36
24302;BME280;12421;49.732;20.078;2023-04-06T18:52:21;96866.68;;;0.84;77.54
24302;BME280;12421;49.732;20.078;2023-04-06T19:02:24;96859.98;;;0.99;77.06
24302;BME280;12421;49.732;20.078;2023-04-06T19:12:28;96853.41;;;0.99;76.80
24302;BME280;12421;49.732;20.078;2023-04-06T19:22:37;96846.48;;;0.92;77.03
24302;BME280;12421;49.732;20.078;2023-04-06T19:32:40;96834.30;;;0.88;77.57
24302;BME280;12421;49.732;20.078;2023-04-06T19:42:43;96831.34;;;0.87;77.64
24302;BME280;12421;49.732;20.078;2023-04-06T19:52:47;96816.84;;;0.95;77.38
24302;BME280;12421;49.732;20.078;2023-04-06T20:02:52;96815.23;;;0.99;77.63
24302;BME280;12421;49.732;20.078;2023-04-06T20:12:55;96822.35;;;0.94;77.80
24302;BME280;12421;49.732;20.078;2023-04-06T20:22:58;96829.59;;;0.93;78.44
24302;BME280;12421;49.732;20.078;2023-04-06T20:33:01;96820.85;;;1.03;78.47
24302;BME280;12421;49.732;20.078;2023-04-06T20:43:04;96810.21;;;1.06;78.68
24302;BME280;12421;49.732;20.078;2023-04-06T20:53:08;96812.40;;;1.04;78.68
24302;BME280;12421;49.732;20.078;2023-04-06T21:03:11;96805.55;;;1.07;78.09
24302;BME280;12421;49.732;20.078;2023-04-06T21:13:14;96800.91;;;1.08;78.53
24302;BME280;12421;49.732;20.078;2023-04-06T21:23:17;96794.27;;;1.13;78.28
24302;BME280;12421;49.732;20.078;2023-04-06T21:33:21;96787.23;;;1.22;78.30
24302;BME280;12421;49.732;20.078;2023-04-06T21:43:25;96781.30;;;1.19;77.91
24302;BME280;12421;49.732;20.078;2023-04-06T21:53:30;96785.98;;;1.12;77.94
24302;BME280;12421;49.732;20.078;2023-04-06T22:03:34;96778.23;;;1.13;78.68
24302;BME280;12421;49.732;20.078;2023-04-06T22:13:38;96768.11;;;1.09;78.89
24302;BME280;12421;49.732;20.078;2023-04-06T22:23:41;96753.46;;;1.12;78.93
24302;BME280;12421;49.732;20.078;2023-04-06T22:33:45;96742.63;;;1.14;78.87
24302;BME280;12421;49.732;20.078;2023-04-06T22:43:48;96737.31;;;1.08;78.45
24302;BME280;12421;49.732;20.078;2023-04-06T22:53:51;96725.01;;;0.99;78.64
24302;BME280;12421;49.732;20.078;2023-04-06T23:03:55;96717.55;;;0.91;79.08
24302;BME280;12421;49.732;20.078;2023-04-06T23:13:58;96714.34;;;0.94;78.99
24302;BME280;12421;49.732;20.078;2023-04-06T23:24:02;96713.73;;;0.97;78.73
24302;BME280;12421;49.732;20.078;2023-04-06T23:34:05;96712.36;;;0.91;78.88
24302;BME280;12421;49.732;20.078;2023-04-06T23:44:08;96693.67;;;0.89;78.93
24302;BME280;12421;49.732;20.078;2023-04-06T23:54:12;96682.28;;;0.89;79.32
